Lester B. Pearson International Airport
CYYZ : rendu visible

Aérodrome :











RETROUVEZ-NOUS SUR...

 
LOGIN :

S'inscrire | Disclaimer

   EN    FR    IT 

 









Légende :    VFR   VFR Marginal   IFR   IFR Intensif   IFR Très Intensif
Visi : 
Plafond : 
>= 8 km
>= 3000ft
5 à 8 km
1000 à 3000 ft
1500m à 5 km
500 à 1000 ft
800 à 1500m
200 à 500 ft
< 800m
< 200 ft
Symboles :   Orages  Brouillard  Fortes neiges  Fortes précipitations  Vent > 20 kt






- Altitude de l'aérodrome : 569 ft
- Code IATA : YYZ


CYYZ - Lester B. Pearson International

DERNIER METAR :
  • 131600Z 10005KT 090V190 15SM FEW180 27/16 A3014 RMK AC1 SLP207 DENSITY ALT 1900FT

METARs EXPIRÉS :
  • 131500Z 06006KT 030V100 15SM FEW200 27/15 A3016 RMK CI1 SLP212 DENSITY ALT 1800FT
  • 131400Z 06004KT 030V110 15SM FEW200 25/17 A3016 RMK CI1 SLP214 DENSITY ALT 1600FT

TAF TAF CYYZ
Valide du 13 à 15h jusqu'au 14 à 18h UTC


131438Z 1315/1418 VRB03KT P6SM FEW050 SCT200
BECMG 1316/1318 16008KT
BECMG 1400/1402 VRB03KT
FM140400 04007KT P6SM FEW040
BECMG 1413/1415 11012KT RMK NXT FCST BY 131800Z
FIR CZYZ / Amérique du Nord



MET'MAP, la Météo Aéronautique d'un coup d'oeil ! - Copyright ORBIFLY Décembre 2007 - Disclaimer

ORBIFLY MET'MAP TEAM :

Programmation & Développement : Alexandra Zaïnal
Sur une idée originale de : Baudouin d'Aumeries
Assistance à la programmation : Marc-Olivier Méhu
Soutien technique & logistique : Manuel Goepfert

Contact : metmap@orbifly.com




SOURCES & CREDITS :

   NOAA       Earth
Advisory